This is the latest recevied weather packets stored in our database for station/object NC4J. If no packets are shown the sender has not sent any weather packets the latest 10 day(s).
| Time | Temp. | Humidity | Pressure | Rain* | Wind** | Luminosity | Snow |
|---|---|---|---|---|---|---|---|
| 1777384817 | 11.67° C | 98% | 1023.2 hPa | 0 mm | - | 65 W/m² | - |
| 1777384209 | 11.67° C | 98% | 1022.8 hPa | 0 mm | - | 66 W/m² | - |
| 1777383298 | 11.11° C | 98% | 1022.8 hPa | 0 mm | - | 39 W/m² | - |
| 1777382994 | 11.11° C | 98% | 1022.3 hPa | 1.78 mm | - | 29 W/m² | - |
| 1777381779 | 10.56° C | 98% | 1024.2 hPa | 3.05 mm | - | 13 W/m² | - |
| 1777381478 | 10.56° C | 98% | 1023.8 hPa | 1.78 mm | - | 13 W/m² | - |
| 1777381175 | 10.56° C | 98% | 1024.3 hPa | 1.27 mm | - | 12 W/m² | - |
| 1777379353 | 10.56° C | 98% | 1025 hPa | 9.65 mm | - | 3 W/m² | - |
| 1777378743 | 10.56° C | 98% | 1024.3 hPa | 10.16 mm | - | 2 W/m² | - |
| 1777378135 | 10.56° C | 98% | 1024.6 hPa | 11.94 mm | - | 3 W/m² | - |
| 1777377830 | 10.56° C | 98% | 1024.3 hPa | 11.94 mm | - | 2 W/m² | - |
| 1777377529 | 10.56° C | 97% | 1024.3 hPa | 10.67 mm | - | 2 W/m² | - |
| 1777376619 | 10.56° C | 97% | 1023.5 hPa | 10.67 mm | - | 1 W/m² | - |
| 1777376317 | 10.56° C | 97% | 1023.7 hPa | 6.1 mm | - | 1 W/m² | - |
| 1777372682 | 11.11° C | 94% | 1024.2 hPa | 11.94 mm | - | 0 W/m² | - |
| 1777372381 | 11.11° C | 93% | 1024.4 hPa | 19.81 mm | - | 0 W/m² | - |
| 1777372080 | 11.11° C | 92% | 1023.4 hPa | 14.99 mm | - | 0 W/m² | - |
| 1777371775 | 11.67° C | 89% | 1023.4 hPa | 4.32 mm | - | 0 W/m² | - |
| 1777371473 | 12.22° C | 85% | 1023.7 hPa | 0 mm | - | 0 W/m² | - |
| 1777371169 | 12.22° C | 83% | 1023.5 hPa | 0 mm | - | 0 W/m² | - |
| 1777370865 | 12.22° C | 82% | 1023.7 hPa | 0 mm | - | 0 W/m² | - |
| 1777370562 | 11.67° C | 84% | 1023.3 hPa | 0 mm | - | 0 W/m² | - |
| 1777370257 | 11.67° C | 86% | 1021.8 hPa | 0 mm | - | 0 W/m² | - |
| 1777369953 | 11.67° C | 87% | 1021.4 hPa | 0 mm | - | 0 W/m² | - |
| 1777369045 | 11.67° C | 85% | 1021.2 hPa | 0 mm | - | 0 W/m² | - |
* Rain latest hour (hover to see other rain measurements)
** Current wind speed in m/s (hover to see current wind gust speed)